createdAt,value
2022-10-13T02:51:14.025Z,100799.63
2022-10-13T02:59:23.557Z,100794.00
2022-10-13T03:02:16.592Z,100792.58
2022-10-13T03:27:12.178Z,100806.98
2022-10-13T05:23:27.275Z,100821.98
2022-10-13T05:33:41.607Z,100831.46
2022-10-13T05:33:44.169Z,100828.55
2022-10-13T05:37:05.257Z,100828.68
2022-10-13T05:41:45.977Z,100829.02
2022-10-13T05:46:50.351Z,100835.73
2022-10-13T05:49:17.415Z,100836.08
2022-10-13T05:51:49.775Z,100836.77
2022-10-13T05:54:35.842Z,100834.70
2022-10-13T05:57:27.120Z,100833.46
2022-10-13T06:00:03.369Z,100835.82
2022-10-13T06:03:04.386Z,100840.49
2022-10-13T06:05:36.669Z,100843.11
2022-10-13T06:09:11.416Z,100844.64
2022-10-13T06:10:59.105Z,100846.40
2022-10-13T06:13:26.973Z,100845.45
2022-10-13T06:16:16.819Z,100845.75
2022-10-13T06:18:43.597Z,100843.07
2022-10-13T06:21:12.881Z,100841.80
2022-10-13T06:23:39.536Z,100841.84
2022-10-13T06:26:07.380Z,100842.68
2022-10-13T06:28:35.938Z,100846.52
2022-10-13T06:31:05.827Z,100850.90
2022-10-13T06:33:32.869Z,100849.27
2022-10-13T06:36:08.525Z,100849.90
2022-10-13T06:38:38.309Z,100847.03
2022-10-13T06:41:06.486Z,100848.17
2022-10-13T06:43:40.451Z,100851.35
2022-10-13T06:46:32.916Z,100845.20
2022-10-13T06:49:09.638Z,100847.59
2022-10-13T06:51:36.761Z,100849.61
2022-10-13T06:54:04.323Z,100851.77
2022-10-13T06:56:36.577Z,100849.06
2022-10-13T06:59:08.239Z,100844.41
2022-10-13T07:01:41.558Z,100847.23
2022-10-13T07:04:20.788Z,100848.00
2022-10-13T07:06:48.440Z,100848.16
2022-10-13T07:09:15.577Z,100849.88
2022-10-13T07:11:48.290Z,100846.94
2022-10-13T07:14:15.126Z,100849.92
2022-10-13T07:16:41.792Z,100852.41
2022-10-13T07:19:08.510Z,100848.48
2022-10-13T07:21:36.723Z,100840.91
2022-10-13T07:24:03.538Z,100841.48
2022-10-13T07:26:34.926Z,100842.01
2022-10-13T07:29:01.768Z,100843.58
2022-10-13T07:31:28.796Z,100844.91
2022-10-13T07:33:58.308Z,100851.14
2022-10-13T07:36:27.018Z,100853.53
2022-10-13T07:38:53.761Z,100850.73
2022-10-13T07:41:20.526Z,100851.16
2022-10-13T07:43:47.128Z,100851.45
2022-10-13T07:46:13.816Z,100852.63
2022-10-13T07:48:40.711Z,100851.34
2022-10-13T07:51:10.043Z,100851.34
2022-10-13T07:53:37.413Z,100849.30
2022-10-13T07:56:06.908Z,100852.74
2022-10-13T07:58:37.589Z,100854.90
2022-10-13T08:01:04.541Z,100847.83
2022-10-13T08:06:03.590Z,100844.47
2022-10-13T08:08:31.498Z,100844.70
2022-10-13T08:11:03.949Z,100845.70
2022-10-13T08:13:33.086Z,100840.48
2022-10-13T08:16:07.816Z,100840.54
2022-10-13T08:18:34.523Z,100836.14
2022-10-13T08:23:50.213Z,100833.85
2022-10-13T08:26:26.783Z,100829.90
2022-10-13T08:31:43.858Z,100830.56
2022-10-13T08:34:11.581Z,100826.11
2022-10-13T08:36:38.990Z,100827.46
2022-10-13T08:39:06.898Z,100829.60
2022-10-13T08:41:43.579Z,100830.20
2022-10-13T08:45:15.710Z,100829.31
2022-10-13T08:47:44.923Z,100828.91
2022-10-13T08:50:38.658Z,100828.04
2022-10-13T08:53:34.282Z,100824.85
2022-10-13T08:56:29.705Z,100822.86
2022-10-13T08:59:04.993Z,100823.42
2022-10-13T09:01:43.257Z,100824.48
2022-10-13T09:07:36.698Z,100826.34
2022-10-13T09:10:09.550Z,100827.69
2022-10-13T09:12:41.720Z,100827.02
2022-10-13T09:15:29.160Z,100822.93
2022-10-13T09:18:42.903Z,100818.73
2022-10-13T09:22:33.509Z,100819.91
2022-10-13T09:25:30.520Z,100822.27
2022-10-13T09:28:00.216Z,100816.77
2022-10-13T09:30:37.655Z,100815.27
2022-10-13T09:33:07.060Z,100819.69
2022-10-13T09:36:23.136Z,100816.17
2022-10-13T09:39:27.663Z,100816.87
2022-10-13T09:42:26.522Z,100814.44
2022-10-13T09:45:27.231Z,100815.43
2022-10-13T09:51:42.444Z,100805.27
2022-10-13T09:54:41.029Z,100802.29
2022-10-13T09:57:53.657Z,100799.93
2022-10-13T10:00:36.060Z,100798.20
2022-10-13T10:03:39.762Z,100799.80
2022-10-13T10:06:15.458Z,100794.05
2022-10-13T10:09:04.196Z,100792.59
2022-10-13T10:11:48.089Z,100788.41
2022-10-13T10:14:42.710Z,100783.27
2022-10-13T10:17:26.120Z,100776.36
2022-10-13T10:20:24.532Z,100774.39
2022-10-13T10:23:38.919Z,100772.09
2022-10-13T10:26:43.029Z,100767.64
2022-10-13T10:29:48.380Z,100759.90
2022-10-13T10:32:30.305Z,100756.97
2022-10-13T10:35:13.500Z,100750.59
2022-10-13T10:38:21.537Z,100745.84
2022-10-13T10:41:13.749Z,100742.66
2022-10-13T10:43:46.209Z,100740.92
2022-10-13T10:46:23.423Z,100741.52
2022-10-13T10:49:25.085Z,100738.52
2022-10-13T10:51:54.002Z,100740.05
2022-10-13T10:54:59.873Z,100737.12
2022-10-13T10:58:07.983Z,100733.09
2022-10-13T11:00:47.704Z,100729.78
2022-10-13T11:03:35.583Z,100722.02
2022-10-13T11:06:15.956Z,100713.87
2022-10-13T11:08:46.977Z,100710.45
2022-10-13T11:11:37.721Z,100704.55
2022-10-13T11:14:29.796Z,100697.56
2022-10-13T11:17:14.004Z,100693.70
2022-10-13T11:19:42.481Z,100694.83
2022-10-13T11:22:18.459Z,100691.08
2022-10-13T11:25:05.006Z,100687.41
2022-10-13T11:28:44.515Z,100681.42
2022-10-13T11:31:16.815Z,100679.17
2022-10-13T11:36:57.769Z,100674.79
2022-10-13T11:43:24.021Z,100671.92
2022-10-13T11:54:57.969Z,100659.09
2022-10-13T11:58:07.525Z,100651.14
2022-10-13T12:01:21.089Z,100643.74
2022-10-13T12:03:54.056Z,100640.09
2022-10-13T12:06:32.715Z,100635.80
2022-10-13T12:21:37.451Z,100629.48
2022-10-13T12:25:43.268Z,100631.59
2022-10-13T12:28:19.542Z,100627.60
2022-10-13T12:31:30.839Z,100621.84
2022-10-13T12:34:47.323Z,100618.27
2022-10-13T12:37:32.844Z,100615.38
2022-10-13T12:40:00.677Z,100612.42
2022-10-13T12:42:34.589Z,100609.20
2022-10-13T12:45:03.722Z,100608.52
2022-10-13T12:47:49.766Z,100607.00
2022-10-13T12:50:58.810Z,100602.73
2022-10-13T12:53:53.736Z,100601.95
2022-10-13T12:56:55.401Z,100604.67
2022-10-13T12:59:30.671Z,100600.35
2022-10-13T13:09:54.842Z,100594.46
2022-10-13T13:10:25.657Z,100594.23
2022-10-13T13:12:54.436Z,100593.42
2022-10-13T13:15:24.208Z,100589.84
2022-10-13T13:19:17.156Z,100589.17
2022-10-13T13:21:50.456Z,100583.91
2022-10-13T13:24:36.080Z,100583.95
2022-10-13T13:27:53.639Z,100581.64
2022-10-13T13:34:18.846Z,100574.54
2022-10-13T13:37:35.329Z,100571.91
2022-10-13T13:40:03.368Z,100566.48
2022-10-13T13:42:30.387Z,100564.39
2022-10-13T13:45:18.757Z,100567.44
2022-10-13T13:48:21.438Z,100566.16
2022-10-13T13:50:55.828Z,100562.16
2022-10-13T13:53:25.111Z,100558.40
2022-10-13T13:59:04.903Z,100561.31
2022-10-13T14:01:34.355Z,100559.09
2022-10-13T14:04:02.486Z,100560.19
2022-10-13T14:06:44.303Z,100561.28
2022-10-13T14:10:02.118Z,100558.03
2022-10-13T14:13:12.526Z,100558.46
2022-10-13T14:15:58.187Z,100558.39
2022-10-13T14:18:35.923Z,100563.20
2022-10-13T14:24:11.931Z,100566.85
2022-10-13T14:27:18.617Z,100566.11
2022-10-13T14:30:16.615Z,100561.66
2022-10-13T14:32:49.576Z,100563.86
2022-10-13T14:35:23.246Z,100563.81
2022-10-13T14:38:04.094Z,100564.23
2022-10-13T14:41:08.898Z,100562.80
2022-10-13T14:43:40.075Z,100561.80
2022-10-13T14:46:19.105Z,100560.34
2022-10-13T14:53:57.056Z,100563.63
2022-10-13T14:56:29.621Z,100562.64
2022-10-13T14:58:58.539Z,100563.18
2022-10-13T15:01:59.063Z,100566.56
2022-10-13T15:04:37.643Z,100566.13
2022-10-13T15:07:27.140Z,100561.84
2022-10-13T15:17:24.383Z,100571.54
2022-10-13T15:19:43.551Z,100565.96
2022-10-13T15:20:07.618Z,100568.64
2022-10-13T15:22:53.292Z,100566.85
2022-10-13T15:33:11.462Z,100567.99
2022-10-13T15:40:27.170Z,100562.36
2022-10-13T15:45:08.123Z,100565.33
2022-10-13T15:48:53.906Z,100564.02
2022-10-13T15:51:55.354Z,100569.86
2022-10-13T16:03:55.986Z,100567.48
2022-10-13T16:25:27.999Z,100574.45
2022-10-13T16:28:20.430Z,100572.59
2022-10-13T16:31:18.795Z,100569.61
2022-10-13T16:33:45.640Z,100569.97
2022-10-13T16:36:17.872Z,100564.92
2022-10-13T16:38:48.928Z,100570.38
2022-10-13T16:41:20.186Z,100571.39
2022-10-13T16:43:48.110Z,100572.30
2022-10-13T16:46:18.753Z,100572.49
2022-10-13T16:48:55.680Z,100571.34
2022-10-13T16:51:49.036Z,100569.30
2022-10-13T16:54:16.076Z,100569.44
2022-10-13T16:56:42.797Z,100571.31
2022-10-13T16:59:09.754Z,100570.08
2022-10-13T17:01:36.599Z,100565.83
2022-10-13T17:04:04.017Z,100565.73
2022-10-13T17:06:30.479Z,100569.18
2022-10-13T17:08:59.830Z,100571.07
2022-10-13T17:11:30.081Z,100570.33
2022-10-13T17:14:08.485Z,100571.83
2022-10-13T17:16:45.846Z,100570.67
2022-10-13T17:19:12.548Z,100575.56
2022-10-13T17:21:47.599Z,100572.91
2022-10-13T17:24:16.421Z,100570.96
2022-10-13T17:26:54.536Z,100571.89
2022-10-13T17:32:16.441Z,100571.24
2022-10-13T17:34:46.684Z,100570.44
2022-10-13T17:37:45.641Z,100571.98
2022-10-13T17:40:16.346Z,100570.70
2022-10-13T17:42:42.949Z,100568.93
2022-10-13T17:47:02.306Z,100571.52
2022-10-13T17:49:56.852Z,100566.84
2022-10-13T17:55:26.998Z,100565.08
2022-10-13T17:58:13.718Z,100566.02
2022-10-13T17:58:40.211Z,100566.84
2022-10-13T18:01:40.904Z,100571.86
2022-10-13T18:04:59.399Z,100571.39
2022-10-13T18:11:54.835Z,100569.89
2022-10-13T18:14:49.251Z,100572.52
2022-10-13T18:15:00.822Z,100569.85
2022-10-13T18:17:35.691Z,100576.13
2022-10-13T18:20:12.249Z,100574.27
2022-10-13T18:22:52.881Z,100579.40
2022-10-13T18:25:49.667Z,100583.55
2022-10-13T18:28:17.403Z,100579.83
2022-10-13T18:31:14.703Z,100576.36
2022-10-13T18:34:04.611Z,100575.04
2022-10-13T18:37:22.593Z,100576.88
2022-10-13T18:39:54.014Z,100578.91
2022-10-13T18:42:20.699Z,100576.98
2022-10-13T18:44:47.343Z,100571.48
2022-10-13T18:47:14.130Z,100574.98
2022-10-13T18:49:40.684Z,100579.14
2022-10-13T18:52:24.864Z,100577.92
2022-10-13T18:55:02.219Z,100579.11
2022-10-13T18:57:29.001Z,100571.27
2022-10-13T18:59:55.543Z,100576.14
2022-10-13T19:02:29.215Z,100574.61
2022-10-13T19:05:03.389Z,100574.43
2022-10-13T19:07:34.613Z,100569.18
2022-10-13T19:10:15.346Z,100572.55
2022-10-13T19:12:47.189Z,100572.33
2022-10-13T19:18:30.185Z,100573.30
2022-10-13T19:19:07.580Z,100574.04
2022-10-13T19:21:51.403Z,100573.11
2022-10-13T19:24:27.583Z,100575.27
2022-10-13T19:27:00.618Z,100576.28
2022-10-13T19:29:37.763Z,100574.35
2022-10-13T19:32:07.666Z,100579.17
2022-10-13T19:34:58.272Z,100578.84
2022-10-13T19:37:28.987Z,100577.77
2022-10-13T19:39:55.816Z,100574.69
2022-10-13T19:42:25.665Z,100568.81
2022-10-13T19:44:56.100Z,100563.95
2022-10-13T19:47:25.122Z,100562.01
2022-10-13T19:49:52.643Z,100559.21
2022-10-13T19:52:19.207Z,100559.90
2022-10-13T19:54:45.645Z,100564.49
2022-10-13T19:57:12.098Z,100562.60
2022-10-13T19:59:38.659Z,100561.42
2022-10-13T20:02:05.298Z,100562.65
2022-10-13T20:04:55.788Z,100561.77
2022-10-13T20:07:22.641Z,100559.19
2022-10-13T20:09:49.480Z,100558.42
2022-10-13T20:12:27.464Z,100556.25
2022-10-13T20:14:54.100Z,100557.36
2022-10-13T20:17:20.724Z,100558.00
2022-10-13T20:19:47.547Z,100554.54
2022-10-13T20:22:27.431Z,100553.67
2022-10-13T20:25:36.850Z,100550.86
2022-10-13T20:28:07.953Z,100553.58
2022-10-13T20:30:34.529Z,100553.77
2022-10-13T20:33:01.237Z,100556.91
2022-10-13T20:35:45.517Z,100557.24
2022-10-13T20:38:37.715Z,100553.73
2022-10-13T20:41:07.367Z,100551.27
2022-10-13T20:43:34.934Z,100549.09
2022-10-13T20:46:08.775Z,100548.43
2022-10-13T20:49:13.727Z,100541.63
2022-10-13T20:51:30.586Z,100540.61
2022-10-13T20:54:08.648Z,100539.61
2022-10-13T20:56:39.204Z,100541.13
2022-10-13T20:59:09.132Z,100542.11
2022-10-13T21:01:36.996Z,100540.63
2022-10-13T21:04:08.184Z,100538.89
2022-10-13T21:06:35.339Z,100540.52
2022-10-13T21:09:04.236Z,100540.28
2022-10-13T21:11:31.081Z,100539.30
2022-10-13T21:13:57.795Z,100542.23
2022-10-13T21:16:27.763Z,100543.22
2022-10-13T21:18:56.985Z,100543.52
2022-10-13T21:21:34.432Z,100542.88
2022-10-13T21:24:04.458Z,100536.58
2022-10-13T21:26:32.293Z,100536.77
2022-10-13T21:29:00.589Z,100531.98
2022-10-13T21:31:38.443Z,100537.55
2022-10-13T21:34:35.125Z,100533.27
2022-10-13T21:37:02.256Z,100533.94
2022-10-13T21:39:28.939Z,100528.67
2022-10-13T21:42:00.615Z,100528.66
2022-10-13T21:45:21.735Z,100531.22
2022-10-13T21:47:44.785Z,100529.11
2022-10-13T21:50:13.918Z,100526.13
2022-10-13T21:53:03.150Z,100526.36
2022-10-13T21:55:44.415Z,100525.09
2022-10-13T21:58:15.647Z,100525.41
2022-10-13T22:00:49.882Z,100525.98
2022-10-13T22:03:19.855Z,100523.59
2022-10-13T22:06:13.267Z,100522.10
2022-10-13T22:08:51.654Z,100520.02
2022-10-13T22:11:23.721Z,100521.92
2022-10-13T22:13:58.269Z,100520.40
2022-10-13T22:16:32.876Z,100518.76
2022-10-13T22:18:59.774Z,100518.42
2022-10-13T22:22:21.493Z,100517.08
2022-10-13T22:30:07.761Z,100515.74
2022-10-13T22:38:05.406Z,100515.89
2022-10-13T22:38:51.814Z,100511.80
2022-10-13T22:40:40.102Z,100515.74
2022-10-13T22:42:57.525Z,100518.30
2022-10-13T22:43:07.506Z,100513.73
